Select your language:
Online Marketing Agentur sucht Gipfelstürmer   18th Kalahari Augrabies Extreme Marathon   UTAT Ultra-Trail-Atlas-Toubcal  
  AK:   Land:   Ø Geschw.:   AK-Wertung:   
Datum: 08.-09.07.2017 Send Link
Veranstaltung: Gran Trail dei Monti Simbruini (ITA) Mehr Details zum Lauf.
Strecke: 90.2km Landschaftslauf/Trail Ewige Bestenliste dieser Veranstaltung.
Finisher: 49 (46 M, 3 W) Mehrfach-Finisher.
Bestenlisten-tauglich: Nein
Ergebnisliste von: Link (Quelle zum Zeitpunkt der Erfassung.)
Erfassung durch: Marcello Spreafico     13.07.2017 00:41
 
49 Suchergebnisse
Gesamt- Rang Leistung Nachname, Vorname Verein Nat. Jg. M/W Rang M/W AK AK Rang Ø Geschw. km/h alters- korrigierte Leistung
1 13:30:01 h   Ludovisi, Emanuele D+ Trail   ITA  1982 M 1 M23  1 6.681 13:27:50 h
2 14:45:00 h   Tozzi, Ivan Trail DEI Monti Simbruini   ITA  1973 M 2 M40  1 6.115 14:01:17 h
3 14:57:17 h   Gaetani, Elio Atletica AMA Civitanova   ITA  1985 M 3 M23  2 6.032 14:57:07 h
4 15:10:42 h   Martini, Roberto NO Limits   ITA  1984 M 4 M23  3 5.943 15:09:42 h
5 17:08:51 h   Rossi, Bernardo Trail DEI Monti Simbruini   ITA  1975 M 5 M40  2 5.260 16:33:40 h
6 17:08:55 h   Filardi, Francesco Maria Trail & Running Alatri   ITA  1967 M 6 M45  1 5.260 15:30:03 h
7 17:20:03 h   Schiro, Corrado Run Card   ITA  1963 M 7 M50  1 5.204 14:59:39 h
8 17:21:18 h   Martinelli, Luca Vitamina Running Team   ITA  1976 M 8 M40  3 5.197 16:45:42 h
9 17:33:16 h   Madonnini, Daniele Corri Pergola   ITA  1977 M 9 M35  1 5.138 17:10:31 h
10 18:09:05 h   Cipressini, Marcello LA Primula Bianca   ITA  1965 M 10 M50  2 4.969 16:07:33 h
11 18:27:17 h   Spadaro, Stefano Roma Road Runners Club   ITA  1974 M 11 M40  4 4.888 17:41:14 h
12 18:41:08 h   Trombetta, Davide SAN Casto SKY Race   ITA  1974 M 12 M40  5 4.827 17:45:45 h
13 18:43:23 h   Trombetta, Roberto Trail DEI Monti Simbruini   ITA  1970 M 13 M45  2 4.818 17:21:43 h
14 18:47:08 h   Sagripanti, Claudio Atletica Civitanova   ITA  1962 M 14 M50  3 4.802 16:14:59 h
15 19:00:01 h   Tanda, Fabrizio Filippide Runners Team   ITA  1978 M 15 M35  2 4.747 18:35:24 h
16 19:01:50 h   Vanderstraeten, Mattias Belgio   BEL  1985 M 16 M23  4 4.740 19:01:50 h
17 19:45:28 h   Maccherini, Tatiana Ronda Ghibellina Team   ITA  1977 W 1 W35  1 4.565 19:16:40 h
18 19:53:37 h   Salvati, Romolo Plus Ultra Trasacco   ITA  1978 M 17 M35  3 4.534 19:34:10 h
19 19:57:00 h   Buonpane, Michele Runner Bike Acuto   ITA  1961 M 18 M55  1 4.521 16:56:52 h
20 19:58:03 h   Colamartino, Pietro G.S. Celano   ITA  1965 M 19 M50  4 4.517 17:35:01 h
21 20:21:02 h   Semboloni, Gabriele Wolfman Team   ITA  1983 M 20 M23  5 4.432 20:19:42 h
22 20:38:06 h   Casagrande, Giacomo M.C. Manoppello Sogeda   ITA  1969 M 21 M45  3 4.371 18:58:26 h
23 20:42:19 h   Tari, Carmelino I Lupi DI Monte Cairo   ITA  1964 M 22 M50  5 4.356 18:14:00 h
24 20:53:40 h   Gattafoni, Marco Atletica AMA Civitanova   ITA  1971 M 23 M45  4 4.317 19:22:32 h
25 21:01:09 h   Catalani, Augusto Centro Fitness Montello   ITA  1970 M 24 M45  5 4.291 19:29:28 h
26 21:24:14 h   Ciardiello, Sergio D+ Trail   ITA  1974 M 25 M40  6 4.214 20:30:49 h
27 21:27:18 h   Di Massimo, Daniele Ponte Felcino Perugia   ITA  1967 M 26 M50  6 4.204 19:13:33 h
28 21:34:49 h   Vicini, Mauro Forhans Team   ITA  1968 M 27 M45  6 4.180 19:40:30 h
29 21:39:17 h   Grilli, Carlo L'Aquila   ITA  1972 M 28 M40  7 4.165 20:24:58 h
30 21:49:52 h   De Caterini, Giovanni Purosangue Athletics Club   ITA  1967 M 29 M50  7 4.132 19:33:47 h
31 21:49:52 h   Termite, Massimo SEI Sport Monopoli   ITA  1977 M 30 M40  8 4.132 21:13:51 h
32 21:49:53 h   Cerretani, Guerrino Vestina Trail Runners   ITA  1972 M 31 M40  9 4.132 20:34:58 h
33 21:59:30 h   Del Brenna, Francesco Trail Running Project   ITA  1974 M 32 M40  10 4.102 21:04:37 h
34 22:05:48 h   Cavalieri, Manuel Atletica Rocca DI Papa   ITA  1976 M 33 M40  11 4.082 21:20:28 h
35 22:10:20 h   Di Giannantonio, Gianluca Trail DEI Monti Simbruini   ITA  1967 M 34 M45  7 4.068 20:02:30 h
36 22:18:36 h   Corrado, Stefano Plus Ultra Trasacco   ITA  1969 M 35 M45  8 4.043 20:30:51 h
37 22:20:19 h   Londot, Claude Belgio   BEL  1961 M 36 M55  2 4.038 19:08:56 h
38 22:20:52 h   Ferrari, Fabrizio Giovanni Scavo Velletri   ITA  1968 M 37 M45  9 4.036 20:22:29 h
39 22:21:18 h   Sabbatini, Manuela Terzo Tempo Trail - Te...   ITA  1977 W 2 W35  2 4.035 21:48:43 h
40 22:25:09 h   Semboloni, Federico Wolfman Team   ITA  1991 M 38 M23  6 4.023 22:25:09 h
41 22:36:57 h   Fortunato, Giulio Trail & Running Alatri   ITA  1965 M 39 M50  8 3.988 19:54:56 h
42 22:38:45 h   Talamonti, Michele Atletica AMA Civitanova   ITA  1981 M 40 M35  4 3.983 22:27:53 h
43 22:42:12 h   Biondini, Manuel S.P. Seven   ITA  1981 M 41 M35  5 3.973 22:35:24 h
44 22:46:00 h   Tamburri, Francesco Genzano Marathon   ITA  1964 M 42 M50  9 3.962 20:02:54 h
45 22:53:41 h   Silva, Riccardo   ITA  1963 M 43 M50  10 3.940 19:48:15 h
46 23:28:17 h   Belardini, Gianluca Atletica Amatori Velletri   ITA  1971 M 44 M45  10 3.843 21:56:45 h
47 23:28:17 h   Correale, Veronica Free Rummer   ITA  1977 W 3 W35  3 3.843 22:54:04 h
48 23:35:54 h   Torelli, Giovanni Battista Podistica Solidarietà   ITA  1955 M 45 M60  1 3.822 18:56:42 h
49 23:42:11 h   Capitani, Simone Trail DEI Monti Simbruini   ITA  1984 M 46 M23  7 3.805 23:41:54 h